»·PEaware :: PUNT11 KEND-KTIK

PUNT11 :: KEND-KTIK

FLIGHT INFORMATION

Flight Status: Arrived
Operator: Unknown
More flights by this operator :: More flights under this callsign
Pilot: Stephen S. (22026)
Aircraft: BEECH AIRCRAFT T-6A TEXAN
(TEX2)
More flights by this aircraft type
Origin: KEND Vance AFB
United States
Destination: KTIK Tinker AFB
United States
More flights between these airports :: More routes between these airports
Route: PODDS WOPEK MANON TUL KTUL/D015 TUL GULLI2
File this flight plan on PilotEdge
Remarks: Flight of 2. Radar delay at KTUL 15 min.
Altitude:
(Current/Filed)
13,000ft
Speed:
(Current/Filed)
270kts
Departed: 07-Apr-21 10:36 AM
Arrived: 07-Apr-21 11:42 AM
Distance/Time
Traveled:
61nm/1:05
Distance/Time
To Go:
Arrived

Flight Plot

Page will automatically refresh every two minutes.

Flight plan parsing failed; only flown route is shown


Map Options




Map Legend


Flown Route
Filed Route
Departure Airport
Arrival Airport
Navaid (VOR, NDB)
Fix

Horizontal Profiles

Position Reports

Time Latitude Longitude Heading Altitude Ground
Speed
07-Apr-21 10:24 36.346975 -97.909540 219 1280ft 0kts
07-Apr-21 10:25 36.346975 -97.909540 219 1280ft 0kts
07-Apr-21 10:26 36.346975 -97.909540 219 1280ft 0kts
07-Apr-21 10:27 36.346975 -97.909540 219 1280ft 0kts
07-Apr-21 10:28 36.346765 -97.909474 138 1280ft 11kts
07-Apr-21 10:29 36.341220 -97.909184 181 1285ft 27kts
07-Apr-21 10:30 36.339591 -97.908370 182 1288ft 0kts
07-Apr-21 10:31 36.339431 -97.908429 229 1288ft 8kts
07-Apr-21 10:32 36.335854 -97.909241 179 1293ft 18kts
07-Apr-21 10:33 36.333436 -97.910085 269 1291ft 0kts
07-Apr-21 10:34 36.333639 -97.911150 359 1290ft 0kts
07-Apr-21 10:35 36.363256 -97.909867 4 2169ft 172kts
07-Apr-21 10:36 36.412047 -97.901041 3 5142ft 172kts
07-Apr-21 10:37 36.458185 -97.881936 62 8030ft 194kts
07-Apr-21 10:38 36.461533 -97.814766 94 10713ft 194kts
07-Apr-21 10:39 36.472705 -97.751742 73 12249ft 189kts
07-Apr-21 10:40 36.482801 -97.684882 89 13115ft 208kts
07-Apr-21 10:41 36.510244 -97.617809 51 12961ft 239kts
07-Apr-21 10:42 36.549399 -97.551398 51 13024ft 240kts
07-Apr-21 10:43 36.588496 -97.484413 49 13384ft 226kts
07-Apr-21 10:44 36.638061 -97.432662 46 12895ft 225kts
07-Apr-21 10:45 36.639416 -97.362431 115 12916ft 229kts
07-Apr-21 10:46 36.616247 -97.288534 111 12997ft 232kts
07-Apr-21 10:47 36.602620 -97.208536 100 13092ft 241kts
07-Apr-21 10:48 36.587660 -97.123464 105 12991ft 252kts
07-Apr-21 10:49 36.570645 -97.034666 104 13015ft 251kts
07-Apr-21 10:50 36.555374 -96.945659 102 12992ft 253kts
07-Apr-21 10:51 36.544320 -96.856026 98 12887ft 250kts
07-Apr-21 10:52 36.527741 -96.767147 108 13330ft 268kts
07-Apr-21 10:53 36.513164 -96.668243 100 12784ft 279kts
07-Apr-21 10:54 36.501161 -96.586790 95 12584ft 233kts
07-Apr-21 10:55 36.498792 -96.502975 91 13044ft 183kts
07-Apr-21 10:56 36.494272 -96.420902 94 13053ft 255kts
07-Apr-21 10:57 36.490906 -96.326897 94 13072ft 264kts
07-Apr-21 10:58 36.487329 -96.231861 92 13062ft 265kts
07-Apr-21 10:59 36.485713 -96.136758 92 10156ft 269kts
07-Apr-21 11:00 36.483495 -96.043238 92 6070ft 264kts
07-Apr-21 11:01 36.482618 -95.952816 92 3023ft 220kts
07-Apr-21 11:02 36.452844 -95.892825 154 2921ft 193kts
07-Apr-21 11:03 36.401250 -95.885541 185 2486ft 176kts
07-Apr-21 11:04 36.359047 -95.887522 186 2444ft 122kts
07-Apr-21 11:05 36.325356 -95.890443 183 2484ft 109kts
07-Apr-21 11:06 36.297305 -95.892359 189 2293ft 113kts
07-Apr-21 11:07 36.260838 -95.895612 184 1616ft 111kts
07-Apr-21 11:08 36.228736 -95.897717 184 1064ft 112kts
07-Apr-21 11:09 36.193365 -95.900871 181 1822ft 151kts
07-Apr-21 11:10 36.145987 -95.903971 187 4244ft 187kts
07-Apr-21 11:11 36.085939 -95.907386 187 5050ft 238kts
07-Apr-21 11:12 36.018969 -95.920240 214 6678ft 214kts
07-Apr-21 11:13 36.011584 -95.991959 277 8970ft 225kts
07-Apr-21 11:14 36.026662 -96.068758 272 11213ft 219kts
07-Apr-21 11:15 36.026062 -96.150413 266 12186ft 250kts
07-Apr-21 11:16 36.023085 -96.243984 270 12049ft 257kts
07-Apr-21 11:17 36.021502 -96.340625 270 12059ft 271kts
07-Apr-21 11:18 36.019629 -96.435371 269 12053ft 259kts
07-Apr-21 11:19 36.019371 -96.527184 271 12123ft 256kts
07-Apr-21 11:20 36.017600 -96.620805 266 12008ft 257kts
07-Apr-21 11:21 36.014375 -96.713788 269 12034ft 259kts
07-Apr-21 11:22 36.015629 -96.805023 272 11984ft 252kts
07-Apr-21 11:23 36.016569 -96.897528 265 11955ft 263kts
07-Apr-21 11:24 36.009579 -96.987906 266 12050ft 262kts
07-Apr-21 11:25 36.005382 -97.078137 267 11982ft 260kts
07-Apr-21 11:26 35.964910 -97.146533 214 12060ft 265kts
07-Apr-21 11:27 35.906024 -97.195378 217 12026ft 247kts
07-Apr-21 11:28 35.851189 -97.242015 216 11900ft 242kts
07-Apr-21 11:29 35.793431 -97.289839 215 10152ft 249kts
07-Apr-21 11:30 35.737424 -97.335002 217 7909ft 230kts
07-Apr-21 11:31 35.684033 -97.378506 214 5829ft 235kts
07-Apr-21 11:32 35.631941 -97.421022 215 4146ft 219kts
07-Apr-21 11:33 35.582333 -97.462370 223 4069ft 209kts
07-Apr-21 11:34 35.553000 -97.524937 221 4165ft 219kts
07-Apr-21 11:35 35.500099 -97.532044 136 3973ft 223kts
07-Apr-21 11:36 35.468703 -97.484927 120 3534ft 138kts
07-Apr-21 11:37 35.450100 -97.447010 125 2466ft 116kts
07-Apr-21 11:38 35.454952 -97.418181 48 1896ft 107kts
07-Apr-21 11:39 35.458287 -97.384898 161 1870ft 112kts
07-Apr-21 11:40 35.427791 -97.382081 180 1273ft 98kts
07-Apr-21 11:41 35.417480 -97.381654 93 1272ft 0kts

Navigation Log

Ident Type
Flight plan parsing failed, navigation log unavailable